createdAt,value
2017-11-29T00:01:24.759Z,2.93
2017-11-29T00:03:51.809Z,3.30
2017-11-29T00:06:18.644Z,2.97
2017-11-29T00:08:46.091Z,2.60
2017-11-29T00:11:13.568Z,2.80
2017-11-29T00:13:40.279Z,3.70
2017-11-29T00:16:07.042Z,3.57
2017-11-29T00:18:34.544Z,3.80
2017-11-29T00:21:01.437Z,3.87
2017-11-29T00:23:28.253Z,5.20
2017-11-29T00:25:55.132Z,3.10
2017-11-29T00:28:22.646Z,3.30
2017-11-29T00:30:49.453Z,3.67
2017-11-29T00:33:16.261Z,4.20
2017-11-29T00:35:42.918Z,2.77
2017-11-29T00:38:09.852Z,2.30
2017-11-29T00:40:36.996Z,3.60
2017-11-29T00:43:04.432Z,3.37
2017-11-29T00:45:31.170Z,3.13
2017-11-29T00:47:58.296Z,4.00
2017-11-29T00:50:25.170Z,3.97
2017-11-29T00:52:51.993Z,4.20
2017-11-29T00:55:18.789Z,5.40
2017-11-29T00:57:45.611Z,10.13
2017-11-29T01:00:12.637Z,5.47
2017-11-29T01:02:39.639Z,6.07
2017-11-29T01:05:07.346Z,3.10
2017-11-29T01:07:34.085Z,3.23
2017-11-29T01:10:00.971Z,2.97
2017-11-29T01:12:27.859Z,4.03
2017-11-29T01:14:54.650Z,3.60
2017-11-29T01:17:22.125Z,6.30
2017-11-29T01:19:49.319Z,4.63
2017-11-29T01:22:16.032Z,6.33
2017-11-29T01:24:42.733Z,3.40
2017-11-29T01:27:09.445Z,3.67
2017-11-29T01:29:36.198Z,4.20
2017-11-29T01:32:02.971Z,3.57
2017-11-29T01:34:30.353Z,5.47
2017-11-29T01:36:56.988Z,6.53
2017-11-29T01:39:23.706Z,4.33
2017-11-29T01:41:50.711Z,3.50
2017-11-29T01:44:17.284Z,5.23
2017-11-29T01:46:44.017Z,6.40
2017-11-29T01:49:11.195Z,3.80
2017-11-29T01:51:37.902Z,4.30
2017-11-29T01:54:05.447Z,4.93
2017-11-29T01:56:32.203Z,4.70
2017-11-29T01:58:58.906Z,3.03
2017-11-29T02:01:25.693Z,7.70
2017-11-29T02:03:52.436Z,3.20
2017-11-29T02:06:26.344Z,3.03
2017-11-29T02:08:53.794Z,6.20
2017-11-29T02:11:20.495Z,7.37
2017-11-29T02:13:47.264Z,5.83
2017-11-29T02:16:13.935Z,6.63
2017-11-29T02:18:40.623Z,8.07
2017-11-29T02:21:07.317Z,9.60
2017-11-29T02:23:33.927Z,6.20
2017-11-29T02:26:00.707Z,5.53
2017-11-29T02:28:27.561Z,6.33
2017-11-29T02:30:54.262Z,8.20
2017-11-29T02:33:20.983Z,8.80
2017-11-29T02:35:48.583Z,8.20
2017-11-29T02:38:15.182Z,5.70
2017-11-29T02:41:00.342Z,5.40
2017-11-29T02:43:27.077Z,6.83
2017-11-29T02:45:53.937Z,5.47
2017-11-29T02:48:22.335Z,5.57
2017-11-29T02:50:49.275Z,5.80
2017-11-29T02:53:18.399Z,5.60
2017-11-29T02:55:47.870Z,6.57
2017-11-29T02:58:14.817Z,5.67
2017-11-29T03:00:41.458Z,10.90
2017-11-29T03:03:08.179Z,5.93
2017-11-29T03:05:34.924Z,10.40
2017-11-29T03:08:01.555Z,9.70
2017-11-29T03:10:28.213Z,8.73
2017-11-29T03:12:55.078Z,7.03
2017-11-29T03:15:21.809Z,9.53
2017-11-29T03:17:48.549Z,8.30
2017-11-29T03:20:15.226Z,5.43
2017-11-29T03:22:42.141Z,10.33
2017-11-29T03:25:08.943Z,6.87
2017-11-29T03:27:35.788Z,12.30
2017-11-29T03:30:02.745Z,10.80
2017-11-29T03:32:29.800Z,5.87
2017-11-29T03:35:00.962Z,6.63
2017-11-29T03:37:27.767Z,12.90
2017-11-29T03:39:54.555Z,8.03
2017-11-29T03:42:21.224Z,6.77
2017-11-29T03:44:47.940Z,6.80
2017-11-29T03:47:15.574Z,12.50
2017-11-29T03:49:42.488Z,8.47
2017-11-29T03:52:10.000Z,8.70
2017-11-29T03:54:36.735Z,7.23
2017-11-29T03:57:03.631Z,9.63
2017-11-29T03:59:30.283Z,7.00
2017-11-29T04:01:56.972Z,7.43
2017-11-29T04:04:25.055Z,15.33
2017-11-29T04:06:52.979Z,8.10
2017-11-29T04:09:19.705Z,6.63
2017-11-29T04:11:46.511Z,12.43
2017-11-29T04:14:13.333Z,9.13
2017-11-29T04:16:40.257Z,9.80
2017-11-29T04:19:07.633Z,11.33
2017-11-29T04:21:35.309Z,7.67
2017-11-29T04:24:02.332Z,9.70
2017-11-29T04:26:29.081Z,12.50
2017-11-29T04:28:55.901Z,13.30
2017-11-29T04:31:22.696Z,8.83
2017-11-29T04:33:49.712Z,8.13
2017-11-29T04:36:16.381Z,10.73
2017-11-29T04:38:43.060Z,9.80
2017-11-29T04:41:09.859Z,7.87
2017-11-29T04:43:36.864Z,9.77
2017-11-29T04:46:03.788Z,10.80
2017-11-29T04:48:30.671Z,15.00
2017-11-29T04:50:58.036Z,7.80
2017-11-29T04:53:26.075Z,8.00
2017-11-29T04:56:05.578Z,12.07
2017-11-29T05:01:34.093Z,10.73
2017-11-29T05:04:05.050Z,10.97
2017-11-29T05:06:45.252Z,11.00
2017-11-29T05:09:31.848Z,13.37
2017-11-29T05:11:58.396Z,13.20
2017-11-29T05:14:25.836Z,11.80
2017-11-29T05:16:54.816Z,10.40
2017-11-29T05:19:22.049Z,10.40
2017-11-29T05:21:48.682Z,9.70
2017-11-29T05:24:15.467Z,12.73
2017-11-29T05:26:42.511Z,11.30
2017-11-29T05:29:09.377Z,20.30
2017-11-29T05:31:36.127Z,14.20
2017-11-29T05:34:02.799Z,9.90
2017-11-29T05:36:29.644Z,11.83
2017-11-29T05:38:57.036Z,16.50
2017-11-29T05:41:24.185Z,10.77
2017-11-29T05:43:50.969Z,22.87
2017-11-29T05:46:18.263Z,14.43
2017-11-29T05:48:44.903Z,12.03
2017-11-29T05:51:11.694Z,13.27
2017-11-29T05:53:39.757Z,15.57
2017-11-29T05:56:06.509Z,14.20
2017-11-29T05:58:33.283Z,15.53
2017-11-29T06:01:00.199Z,13.37
2017-11-29T06:03:26.927Z,17.97
2017-11-29T06:05:53.900Z,14.30
2017-11-29T06:08:20.555Z,13.07
2017-11-29T06:10:47.221Z,14.50
2017-11-29T06:13:13.890Z,11.53
2017-11-29T06:15:40.530Z,11.23
2017-11-29T06:18:07.239Z,9.87
2017-11-29T06:20:34.752Z,7.50
2017-11-29T06:23:01.875Z,7.53
2017-11-29T06:25:28.508Z,13.10
2017-11-29T06:27:55.832Z,9.90
2017-11-29T06:30:22.601Z,14.77
2017-11-29T06:32:49.393Z,14.47
2017-11-29T06:35:17.111Z,13.90
2017-11-29T06:37:43.776Z,11.60
2017-11-29T06:40:10.383Z,16.13
2017-11-29T06:42:37.007Z,15.90
2017-11-29T06:45:03.570Z,15.93
2017-11-29T06:47:31.045Z,16.27
2017-11-29T06:49:57.733Z,20.30
2017-11-29T06:52:24.280Z,16.57
2017-11-29T06:54:50.994Z,17.13
2017-11-29T06:57:17.585Z,16.40
2017-11-29T06:59:44.228Z,12.33
2017-11-29T07:02:10.788Z,19.17
2017-11-29T07:04:37.388Z,12.57
2017-11-29T07:07:03.967Z,17.13
2017-11-29T07:09:30.555Z,14.63
2017-11-29T07:11:57.127Z,14.40
2017-11-29T07:14:23.653Z,17.30
2017-11-29T07:16:50.262Z,18.23
2017-11-29T07:19:16.769Z,13.00
2017-11-29T07:21:43.282Z,14.40
2017-11-29T07:24:10.042Z,13.63
2017-11-29T07:26:36.564Z,17.00
2017-11-29T07:29:03.129Z,16.23
2017-11-29T07:31:29.875Z,13.07
2017-11-29T07:33:56.411Z,15.53
2017-11-29T07:36:23.994Z,12.67
2017-11-29T07:38:50.505Z,13.00
2017-11-29T07:43:50.459Z,18.80
2017-11-29T07:46:16.967Z,17.73
2017-11-29T07:48:45.322Z,18.83
2017-11-29T07:51:11.889Z,16.73
2017-11-29T07:53:39.010Z,12.87
2017-11-29T07:56:05.299Z,13.67
2017-11-29T07:58:31.724Z,17.97
2017-11-29T08:00:58.813Z,17.60
2017-11-29T08:03:25.197Z,17.27
2017-11-29T08:05:52.246Z,12.70
2017-11-29T08:08:19.493Z,20.90
2017-11-29T08:10:46.619Z,23.43
2017-11-29T08:13:12.925Z,16.70
2017-11-29T08:15:39.323Z,15.87
2017-11-29T08:18:05.711Z,13.37
2017-11-29T08:20:34.193Z,15.50
2017-11-29T08:23:00.492Z,15.83
2017-11-29T08:25:26.859Z,16.40
2017-11-29T08:27:53.253Z,17.67
2017-11-29T08:30:19.522Z,15.67
2017-11-29T08:32:57.291Z,15.63
2017-11-29T08:35:25.361Z,19.00
2017-11-29T08:37:52.457Z,14.90
2017-11-29T08:40:18.832Z,14.50
2017-11-29T08:42:47.987Z,13.83
2017-11-29T08:45:14.382Z,17.30
2017-11-29T08:47:40.666Z,18.90
2017-11-29T08:50:07.712Z,17.40
2017-11-29T08:52:34.773Z,14.50
2017-11-29T08:55:01.055Z,18.87
2017-11-29T08:57:27.431Z,13.50
2017-11-29T08:59:53.762Z,11.57
2017-11-29T09:02:20.097Z,12.80
2017-11-29T09:04:46.428Z,12.47
2017-11-29T09:07:13.470Z,12.27
2017-11-29T09:09:39.821Z,14.50
2017-11-29T09:12:06.158Z,16.13
2017-11-29T09:14:32.513Z,17.10
2017-11-29T09:16:58.824Z,12.03
2017-11-29T09:19:26.083Z,14.97
2017-11-29T09:21:54.030Z,21.93
2017-11-29T09:24:20.331Z,15.80
2017-11-29T09:26:46.590Z,19.10
2017-11-29T09:29:12.903Z,17.57
2017-11-29T09:31:39.928Z,16.70
2017-11-29T09:34:06.234Z,11.50
2017-11-29T09:36:33.392Z,14.33
2017-11-29T09:38:59.695Z,13.20
2017-11-29T09:41:26.068Z,15.63
2017-11-29T09:43:52.436Z,13.27
2017-11-29T09:46:18.676Z,26.43
2017-11-29T09:48:44.972Z,17.37
2017-11-29T09:51:11.291Z,14.33
2017-11-29T09:53:37.600Z,16.73
2017-11-29T09:56:03.878Z,15.70
2017-11-29T09:58:30.923Z,16.30
2017-11-29T10:00:57.963Z,14.80
2017-11-29T10:03:24.186Z,23.63
2017-11-29T10:05:50.464Z,13.97
2017-11-29T10:08:16.770Z,19.27
2017-11-29T10:10:43.067Z,15.93
2017-11-29T10:13:09.463Z,13.80
2017-11-29T10:15:35.821Z,13.63
2017-11-29T10:18:02.139Z,17.40
2017-11-29T10:20:28.425Z,20.63
2017-11-29T10:22:55.498Z,14.77
2017-11-29T10:25:21.924Z,22.90
2017-11-29T10:27:48.283Z,14.07
2017-11-29T10:30:14.649Z,18.63
2017-11-29T10:32:40.979Z,17.10
2017-11-29T10:35:07.320Z,12.40
2017-11-29T10:37:33.716Z,12.00
2017-11-29T10:40:00.060Z,12.63
2017-11-29T10:42:26.330Z,13.10
2017-11-29T10:44:53.350Z,17.50
2017-11-29T10:47:19.623Z,16.53
2017-11-29T10:49:45.954Z,15.87
2017-11-29T10:52:12.246Z,15.27
2017-11-29T10:54:38.774Z,15.87
2017-11-29T10:57:05.068Z,11.20
2017-11-29T10:59:31.355Z,16.67
2017-11-29T11:01:57.617Z,18.27
2017-11-29T11:04:23.900Z,6.73
2017-11-29T11:06:51.157Z,3.77
2017-11-29T11:09:17.438Z,3.27
2017-11-29T11:11:43.741Z,2.90
2017-11-29T11:14:10.082Z,3.23
2017-11-29T11:16:36.361Z,3.10
2017-11-29T11:19:02.669Z,4.17
2017-11-29T11:21:28.968Z,7.00
2017-11-29T11:23:55.268Z,2.77
2017-11-29T11:26:21.593Z,12.33
2017-11-29T11:28:47.970Z,3.77
2017-11-29T11:31:14.284Z,3.80
2017-11-29T11:33:41.328Z,2.70
2017-11-29T11:36:08.359Z,2.63
2017-11-29T11:38:35.391Z,2.30
2017-11-29T11:41:01.715Z,3.30
2017-11-29T11:43:28.128Z,2.60
2017-11-29T11:45:54.431Z,3.80
2017-11-29T11:48:20.690Z,2.30
2017-11-29T11:50:46.943Z,4.07
2017-11-29T11:53:13.224Z,3.10
2017-11-29T11:55:39.539Z,3.60
2017-11-29T11:58:06.565Z,4.87
2017-11-29T12:00:32.857Z,5.07
2017-11-29T12:02:59.139Z,3.60
2017-11-29T12:05:26.163Z,4.77
2017-11-29T12:07:52.408Z,2.83
2017-11-29T12:10:18.728Z,3.83
2017-11-29T12:12:45.015Z,3.40
2017-11-29T12:15:11.302Z,6.13
2017-11-29T12:17:38.358Z,7.13
2017-11-29T12:20:05.421Z,5.53
2017-11-29T12:22:31.739Z,4.43
2017-11-29T12:24:58.769Z,6.67
2017-11-29T12:27:25.982Z,3.97
2017-11-29T12:29:52.279Z,5.30
2017-11-29T12:32:18.586Z,8.03
2017-11-29T12:34:44.904Z,5.07
2017-11-29T12:37:11.235Z,3.43
2017-11-29T12:39:37.540Z,2.70
2017-11-29T12:42:03.899Z,3.17
2017-11-29T12:44:31.266Z,6.53
2017-11-29T12:46:57.549Z,3.47
2017-11-29T12:49:42.617Z,5.50
2017-11-29T12:52:08.894Z,5.00
2017-11-29T12:54:35.214Z,2.77
2017-11-29T12:57:01.490Z,5.57
2017-11-29T12:59:27.892Z,2.43
2017-11-29T13:01:54.190Z,3.20
2017-11-29T13:04:20.485Z,6.73
2017-11-29T13:06:46.762Z,4.93
2017-11-29T13:09:13.070Z,6.50
2017-11-29T13:11:39.418Z,6.43
2017-11-29T13:14:05.758Z,3.33
2017-11-29T13:16:32.076Z,3.33
2017-11-29T13:18:58.434Z,5.97
2017-11-29T13:21:24.791Z,3.13
2017-11-29T13:23:51.125Z,3.90
2017-11-29T13:26:17.440Z,2.57
2017-11-29T13:28:43.712Z,8.30
2017-11-29T13:31:10.015Z,2.40
2017-11-29T13:33:37.094Z,5.30
2017-11-29T13:36:03.387Z,4.50
2017-11-29T13:38:29.767Z,3.53
2017-11-29T13:40:56.134Z,3.60
2017-11-29T13:43:22.486Z,3.30
2017-11-29T13:45:49.537Z,3.70
2017-11-29T13:48:16.549Z,4.67
2017-11-29T13:50:42.846Z,3.17
2017-11-29T13:53:09.163Z,4.87
2017-11-29T13:55:35.452Z,4.13
2017-11-29T13:58:01.789Z,3.17
2017-11-29T14:00:28.916Z,3.20
2017-11-29T14:02:55.265Z,3.60
2017-11-29T14:05:21.705Z,6.40
2017-11-29T14:07:48.011Z,4.30
2017-11-29T14:10:14.322Z,3.43
2017-11-29T14:12:40.609Z,4.43
2017-11-29T14:15:07.642Z,4.80
2017-11-29T14:17:33.918Z,5.13
2017-11-29T14:20:00.176Z,3.93
2017-11-29T14:22:26.460Z,4.03
2017-11-29T14:24:53.500Z,9.83
2017-11-29T14:27:20.607Z,8.33
2017-11-29T14:29:46.877Z,4.80
2017-11-29T14:32:13.895Z,3.73
2017-11-29T14:34:40.199Z,5.53
2017-11-29T14:37:06.514Z,5.30
2017-11-29T14:39:32.949Z,3.47
2017-11-29T14:41:59.280Z,6.33
2017-11-29T14:44:25.565Z,5.60
2017-11-29T14:46:51.852Z,6.77
2017-11-29T14:49:18.184Z,9.97
2017-11-29T14:51:44.608Z,8.20
2017-11-29T14:54:10.885Z,11.37
2017-11-29T14:56:37.226Z,4.57
2017-11-29T14:59:03.527Z,5.50
2017-11-29T15:01:29.863Z,8.67
2017-11-29T15:03:56.161Z,4.27
2017-11-29T15:06:22.506Z,3.67
2017-11-29T15:08:49.557Z,7.17
2017-11-29T15:11:15.838Z,7.27
2017-11-29T15:13:42.874Z,6.80
2017-11-29T15:16:09.898Z,5.63
2017-11-29T15:18:37.261Z,9.70
2017-11-29T15:21:03.566Z,5.93
2017-11-29T15:23:29.919Z,5.67
2017-11-29T15:25:56.218Z,8.63
2017-11-29T15:28:22.553Z,8.03
2017-11-29T15:30:48.890Z,12.50
2017-11-29T15:33:15.223Z,11.53
2017-11-29T15:35:41.548Z,12.63
2017-11-29T15:38:07.914Z,12.43
2017-11-29T15:40:34.286Z,8.70
2017-11-29T15:43:00.574Z,12.90
2017-11-29T15:45:26.900Z,8.73
2017-11-29T15:47:53.252Z,11.70
2017-11-29T15:50:19.583Z,17.43
2017-11-29T15:52:45.879Z,14.53
2017-11-29T15:55:12.196Z,10.57
2017-11-29T15:57:38.551Z,14.10
2017-11-29T16:00:04.863Z,15.50
2017-11-29T16:02:31.165Z,22.27
2017-11-29T16:04:57.653Z,15.17
2017-11-29T16:07:23.958Z,17.80
2017-11-29T16:09:50.285Z,16.40
2017-11-29T16:12:16.691Z,21.10
2017-11-29T16:14:43.035Z,24.40
2017-11-29T16:17:09.359Z,24.37
2017-11-29T16:19:37.799Z,25.90
2017-11-29T16:22:04.221Z,21.50
2017-11-29T16:24:30.535Z,28.37
2017-11-29T16:26:56.953Z,26.33
2017-11-29T16:29:23.308Z,29.93
2017-11-29T16:31:49.619Z,32.60
2017-11-29T16:34:15.903Z,27.87
2017-11-29T16:36:43.052Z,27.20
2017-11-29T16:39:10.569Z,27.57
2017-11-29T16:41:37.154Z,25.10
2017-11-29T16:44:04.266Z,27.13
2017-11-29T16:46:30.711Z,27.80
2017-11-29T16:48:57.187Z,29.53
2017-11-29T16:51:24.259Z,21.50
2017-11-29T16:53:50.663Z,25.83
2017-11-29T16:56:17.033Z,21.90
2017-11-29T16:58:43.416Z,23.33
2017-11-29T17:01:09.871Z,28.20
2017-11-29T17:03:36.306Z,30.40
2017-11-29T17:06:02.633Z,27.53
2017-11-29T17:08:28.993Z,28.97
2017-11-29T17:10:55.301Z,22.70
2017-11-29T17:13:21.612Z,26.50
2017-11-29T17:15:47.909Z,33.40
2017-11-29T17:18:14.236Z,34.37
2017-11-29T17:20:40.531Z,40.17
2017-11-29T17:23:06.876Z,39.87
2017-11-29T17:25:33.297Z,42.80
2017-11-29T17:27:59.600Z,39.67
2017-11-29T17:30:28.526Z,44.40
2017-11-29T17:32:54.826Z,56.13
2017-11-29T17:35:21.854Z,31.97
2017-11-29T17:37:48.225Z,29.27
2017-11-29T17:40:14.578Z,19.60
2017-11-29T17:42:40.864Z,21.87
2017-11-29T17:45:08.056Z,19.93
2017-11-29T17:47:34.374Z,24.27
2017-11-29T17:50:00.677Z,25.87
2017-11-29T17:52:26.956Z,22.47
2017-11-29T17:54:53.232Z,25.17
2017-11-29T17:57:20.311Z,20.27
2017-11-29T17:59:46.609Z,20.57
2017-11-29T18:02:13.674Z,20.57
2017-11-29T18:04:40.702Z,22.53
2017-11-29T18:07:07.749Z,19.73
2017-11-29T18:09:34.080Z,14.70
2017-11-29T18:12:00.381Z,16.17
2017-11-29T18:14:26.664Z,14.93
2017-11-29T18:16:52.951Z,18.53
2017-11-29T18:19:19.283Z,18.40
2017-11-29T18:21:45.637Z,21.70
2017-11-29T18:24:12.163Z,17.93
2017-11-29T18:26:38.496Z,14.47
2017-11-29T18:29:06.262Z,18.60
2017-11-29T18:31:32.555Z,13.93
2017-11-29T18:33:58.836Z,15.90
2017-11-29T18:36:25.898Z,14.77
2017-11-29T18:38:52.246Z,17.13
2017-11-29T18:41:18.589Z,13.80
2017-11-29T18:43:44.887Z,31.43
2017-11-29T18:46:11.908Z,27.67
2017-11-29T18:48:38.200Z,19.27
2017-11-29T18:51:04.506Z,18.60
2017-11-29T18:53:30.811Z,23.63
2017-11-29T18:55:57.836Z,17.60
2017-11-29T18:58:24.307Z,19.90
2017-11-29T19:00:50.565Z,20.53
2017-11-29T19:03:16.867Z,22.50
2017-11-29T19:05:43.939Z,20.47
2017-11-29T19:08:10.260Z,21.30
2017-11-29T19:10:36.597Z,17.40
2017-11-29T19:13:02.910Z,22.10
2017-11-29T19:15:29.952Z,23.00
2017-11-29T19:17:57.004Z,19.30
2017-11-29T19:20:24.015Z,23.97
2017-11-29T19:22:50.270Z,26.37
2017-11-29T19:25:17.463Z,24.73
2017-11-29T19:27:43.722Z,21.17
2017-11-29T19:30:10.011Z,22.03
2017-11-29T19:32:36.301Z,27.10
2017-11-29T19:35:02.621Z,22.53
2017-11-29T19:37:28.962Z,23.07
2017-11-29T19:39:55.227Z,30.70
2017-11-29T19:42:22.697Z,26.33
2017-11-29T19:44:49.008Z,27.43
2017-11-29T19:47:16.093Z,22.63
2017-11-29T19:49:42.380Z,27.60
2017-11-29T19:52:09.586Z,27.60
2017-11-29T19:54:35.876Z,22.17
2017-11-29T19:57:02.854Z,25.63
2017-11-29T19:59:29.166Z,26.97
2017-11-29T20:01:55.486Z,19.23
2017-11-29T20:04:21.791Z,24.53
2017-11-29T20:06:48.147Z,27.43
2017-11-29T20:09:14.438Z,24.10
2017-11-29T20:11:40.733Z,29.37
2017-11-29T20:14:07.106Z,24.87
2017-11-29T20:16:33.432Z,25.07
2017-11-29T20:19:00.465Z,29.60
2017-11-29T20:21:27.075Z,27.37
2017-11-29T20:23:54.664Z,30.20
2017-11-29T20:26:21.003Z,33.67
2017-11-29T20:28:47.327Z,40.30
2017-11-29T20:31:13.788Z,52.50
2017-11-29T20:33:40.143Z,43.60
2017-11-29T20:36:06.391Z,33.23
2017-11-29T20:38:32.720Z,36.53
2017-11-29T20:40:59.334Z,32.67
2017-11-29T20:43:27.169Z,29.03
2017-11-29T20:45:53.419Z,30.30
2017-11-29T20:48:21.405Z,33.70
2017-11-29T20:50:47.888Z,31.40
2017-11-29T20:53:14.257Z,33.70
2017-11-29T20:55:40.555Z,33.50
2017-11-29T20:58:07.052Z,31.43
2017-11-29T21:00:33.462Z,28.70
2017-11-29T21:03:00.556Z,26.60
2017-11-29T21:05:26.839Z,30.97
2017-11-29T21:07:54.386Z,31.33
2017-11-29T21:10:21.486Z,29.30
2017-11-29T21:12:47.835Z,28.63
2017-11-29T21:15:14.155Z,29.37
2017-11-29T21:17:40.421Z,31.47
2017-11-29T21:20:06.757Z,27.03
2017-11-29T21:22:33.525Z,26.77
2017-11-29T21:25:00.002Z,31.33
2017-11-29T21:27:26.582Z,29.20
2017-11-29T21:29:53.742Z,33.30
2017-11-29T21:32:20.345Z,29.47
2017-11-29T21:34:46.648Z,30.90
2017-11-29T21:37:12.938Z,28.50
2017-11-29T21:39:39.955Z,28.07
2017-11-29T21:42:06.366Z,30.43
2017-11-29T21:44:32.689Z,27.33
2017-11-29T21:46:59.030Z,31.60
2017-11-29T21:49:25.444Z,30.70
2017-11-29T21:51:51.792Z,27.27
2017-11-29T21:54:18.114Z,31.33
2017-11-29T21:56:44.522Z,28.17
2017-11-29T21:59:11.548Z,28.63
2017-11-29T22:01:38.594Z,34.03
2017-11-29T22:04:12.528Z,28.00
2017-11-29T22:06:39.542Z,33.13
2017-11-29T22:09:05.896Z,30.50
2017-11-29T22:11:32.910Z,32.13
2017-11-29T22:13:59.230Z,26.60
2017-11-29T22:16:25.499Z,35.17
2017-11-29T22:18:52.493Z,33.37
2017-11-29T22:21:18.820Z,50.20
2017-11-29T22:23:45.147Z,39.90
2017-11-29T22:26:11.403Z,35.47
2017-11-29T22:28:37.752Z,36.03
2017-11-29T22:31:04.015Z,35.50
2017-11-29T22:33:30.333Z,35.60
2017-11-29T22:35:57.328Z,36.00
2017-11-29T22:38:24.191Z,37.63
2017-11-29T22:40:50.488Z,35.67
2017-11-29T22:43:16.783Z,42.00
2017-11-29T22:45:43.806Z,42.10
2017-11-29T22:48:10.103Z,42.73
2017-11-29T22:50:36.350Z,38.43
2017-11-29T22:53:02.629Z,41.97
2017-11-29T22:55:29.660Z,38.93
2017-11-29T22:57:56.651Z,47.47
2017-11-29T23:00:26.761Z,38.47
2017-11-29T23:02:53.069Z,44.77
2017-11-29T23:05:20.117Z,43.10
2017-11-29T23:07:47.185Z,38.70
2017-11-29T23:10:13.459Z,37.40
2017-11-29T23:12:39.736Z,41.47
2017-11-29T23:15:06.019Z,37.23
2017-11-29T23:17:32.316Z,51.40
2017-11-29T23:19:58.621Z,48.30
2017-11-29T23:22:25.627Z,49.60
2017-11-29T23:24:51.897Z,46.90
2017-11-29T23:27:18.906Z,43.30
2017-11-29T23:29:45.215Z,42.77
2017-11-29T23:32:11.519Z,50.40
2017-11-29T23:34:37.789Z,37.80
2017-11-29T23:37:04.100Z,36.53
2017-11-29T23:39:30.398Z,40.07
2017-11-29T23:41:56.686Z,33.40
2017-11-29T23:44:23.050Z,36.80
2017-11-29T23:46:50.059Z,39.43
2017-11-29T23:49:16.344Z,37.43
2017-11-29T23:51:42.642Z,39.00
2017-11-29T23:54:08.934Z,32.83
2017-11-29T23:56:35.337Z,40.10
2017-11-29T23:59:01.634Z,34.73
